Macamic, Canada
Current Conditions -  °F | °C
As of 11:00 AM on Thursday 23 Oct 2014 (Local Time) from CYUY Reporting Station
Few Clouds Few Clouds  
Wind Chill: 43°   Ceiling: Unl
Heat Index: 43°   Visibility: 15mi
Dew Point: 34°   Wind: 2mph
Humidity: 70%   Direction: NA
Pressure: 30.22"   Gusts: NA
Location:  48.77°N, 79°W
Report Text: CYUY 231500Z VRB02KT 15SM FEW200 06/01 A3022 RMK CI1 CI TR SLP250
Loading
Personal Weather Stations






























Interactive Weather Map
Tropical Storm Tracking
New forecast layout! Learn more

10-Day Weather Forecast

Advertisements
Track Severe Weather on mobile